createdAt,value
2023-03-25T04:44:53.253Z,23.65
2023-03-25T04:46:58.404Z,22.30
2023-03-25T04:49:00.514Z,15.32
2023-03-25T04:51:03.464Z,21.35
2023-03-25T04:53:05.022Z,26.20
2023-03-25T04:55:09.734Z,21.15
2023-03-25T04:57:13.896Z,23.88
2023-03-25T04:59:18.937Z,28.30
2023-03-25T05:01:23.996Z,20.58
2023-03-25T05:03:25.765Z,25.75
2023-03-25T05:05:27.279Z,16.23
2023-03-25T05:07:33.367Z,20.67
2023-03-25T05:09:37.473Z,26.77
2023-03-25T05:11:39.853Z,25.58
2023-03-25T05:13:44.081Z,17.60
2023-03-25T05:15:48.582Z,22.85
2023-03-25T05:17:53.046Z,21.55
2023-03-25T05:19:57.478Z,21.88
2023-03-25T05:22:01.521Z,26.70
2023-03-25T05:24:08.331Z,19.90
2023-03-25T05:26:13.106Z,29.50
2023-03-25T05:28:15.165Z,24.83
2023-03-25T05:30:19.472Z,16.63
2023-03-25T05:32:26.081Z,21.85
2023-03-25T05:34:31.153Z,27.25
2023-03-25T05:36:32.811Z,20.52
2023-03-25T05:38:38.117Z,20.35
2023-03-25T05:40:40.333Z,14.88
2023-03-25T05:42:48.725Z,33.20
2023-03-25T05:44:53.448Z,22.58
2023-03-25T05:46:54.928Z,25.80
2023-03-25T05:49:01.108Z,32.58
2023-03-25T05:51:06.291Z,13.70
2023-03-25T05:53:09.521Z,23.50
2023-03-25T05:55:15.803Z,22.00
2023-03-25T05:57:17.499Z,22.23
2023-03-25T05:59:20.402Z,20.63
2023-03-25T06:01:32.587Z,40.92
2023-03-25T06:03:36.249Z,24.38
2023-03-25T06:05:41.485Z,15.48
2023-03-25T06:08:01.917Z,23.92
2023-03-25T06:10:06.320Z,15.52
2023-03-25T06:12:07.828Z,21.98
2023-03-25T06:14:20.601Z,20.63
2023-03-25T06:16:28.597Z,22.88
2023-03-25T06:18:35.631Z,24.08
2023-03-25T06:20:49.742Z,21.35
2023-03-25T06:22:56.699Z,26.05
2023-03-25T06:25:02.424Z,20.02
2023-03-25T06:27:08.690Z,21.08
2023-03-25T06:29:18.401Z,22.35
2023-03-25T06:31:29.205Z,28.65
2023-03-25T06:33:42.309Z,25.52
2023-03-25T06:35:50.979Z,14.95
2023-03-25T06:37:58.548Z,19.63
2023-03-25T06:40:02.374Z,19.13
2023-03-25T06:42:25.197Z,19.13
2023-03-25T06:44:33.710Z,24.05
2023-03-25T06:46:40.823Z,18.65
2023-03-25T06:48:47.992Z,26.60
2023-03-25T06:50:54.848Z,14.50
2023-03-25T06:52:56.767Z,16.92
2023-03-25T06:54:58.299Z,17.30
2023-03-25T06:56:59.803Z,17.27
2023-03-25T06:59:04.467Z,22.85
2023-03-25T07:01:08.879Z,15.93
2023-03-25T07:03:11.555Z,26.40
2023-03-25T07:05:16.020Z,25.83
2023-03-25T07:07:20.518Z,21.13
2023-03-25T07:09:41.004Z,29.35
2023-03-25T07:11:42.497Z,20.38
2023-03-25T07:13:46.914Z,17.08
2023-03-25T07:16:07.250Z,24.13
2023-03-25T07:18:11.590Z,22.90
2023-03-25T07:20:17.087Z,26.42
2023-03-25T07:22:21.510Z,20.90
2023-03-25T07:26:24.963Z,13.30
2023-03-25T07:28:26.449Z,15.25
2023-03-25T07:30:31.193Z,29.75
2023-03-25T07:32:35.422Z,20.85
2023-03-25T07:34:39.639Z,19.42
2023-03-25T07:36:41.044Z,23.35
2023-03-25T07:38:45.492Z,13.32
2023-03-25T07:40:49.995Z,14.77
2023-03-25T07:42:52.108Z,21.80
2023-03-25T07:44:56.524Z,14.68
2023-03-25T07:46:57.985Z,22.70
2023-03-25T07:48:59.456Z,18.13
2023-03-25T07:51:01.002Z,14.10
2023-03-25T07:53:21.217Z,22.52
2023-03-25T08:02:06.682Z,15.85
2023-03-25T08:06:12.251Z,17.00
2023-03-25T08:08:16.521Z,13.55
2023-03-25T08:10:20.717Z,12.88
2023-03-25T08:12:25.244Z,14.07
2023-03-25T08:14:29.371Z,13.15
2023-03-25T08:16:33.797Z,13.73
2023-03-25T08:18:37.980Z,14.27
2023-03-25T08:20:39.595Z,14.07
2023-03-25T08:22:46.745Z,14.68
2023-03-25T08:24:51.446Z,14.90
2023-03-25T08:26:54.045Z,16.75
2023-03-25T08:28:58.208Z,16.42
2023-03-25T08:31:02.443Z,13.63
2023-03-25T08:33:07.370Z,14.18
2023-03-25T08:35:12.592Z,10.10
2023-03-25T08:37:15.417Z,10.63
2023-03-25T08:39:19.423Z,16.75
2023-03-25T08:43:27.460Z,10.88
2023-03-25T08:45:47.750Z,14.85
2023-03-25T08:47:49.462Z,12.57
2023-03-25T08:49:50.925Z,13.90
2023-03-25T08:52:10.876Z,12.30
2023-03-25T08:54:12.507Z,13.68
2023-03-25T08:56:16.560Z,18.98
2023-03-25T08:58:22.170Z,11.13
2023-03-25T09:00:25.303Z,13.05
2023-03-25T09:02:26.884Z,12.52
2023-03-25T09:04:31.444Z,11.38
2023-03-25T09:06:47.612Z,14.75
2023-03-25T09:09:05.390Z,11.55
2023-03-25T09:11:07.145Z,10.95
2023-03-25T09:13:11.581Z,10.85
2023-03-25T09:15:15.613Z,9.55
2023-03-25T09:17:19.925Z,12.48
2023-03-25T09:19:21.563Z,14.77
2023-03-25T09:21:29.374Z,14.60
2023-03-25T09:24:04.483Z,12.05
2023-03-25T09:26:24.192Z,13.55
2023-03-25T09:28:43.218Z,9.10
2023-03-25T09:31:00.550Z,9.55
2023-03-25T09:33:19.368Z,14.52
2023-03-25T09:35:35.423Z,18.55
2023-03-25T09:37:52.782Z,15.18
2023-03-25T09:40:05.723Z,11.43
2023-03-25T09:42:43.288Z,7.43
2023-03-25T09:45:12.154Z,12.45
2023-03-25T09:47:28.584Z,8.82
2023-03-25T09:49:47.437Z,10.63
2023-03-25T09:52:05.314Z,7.55
2023-03-25T09:54:33.631Z,15.13
2023-03-25T09:56:47.761Z,11.38
2023-03-25T09:59:01.958Z,13.52
2023-03-25T10:01:35.245Z,20.10
2023-03-25T10:03:51.111Z,12.90
2023-03-25T10:06:17.410Z,13.02
2023-03-25T10:08:57.038Z,11.50
2023-03-25T10:11:11.865Z,11.73
2023-03-25T10:13:31.169Z,10.93
2023-03-25T10:15:35.304Z,16.23
2023-03-25T10:17:45.221Z,13.07
2023-03-25T10:19:51.261Z,13.00
2023-03-25T10:21:52.891Z,14.25
2023-03-25T10:23:54.406Z,12.93
2023-03-25T10:25:59.524Z,12.95
2023-03-25T10:28:05.446Z,11.98
2023-03-25T10:30:09.650Z,10.73
2023-03-25T10:32:18.323Z,16.45
2023-03-25T10:34:40.738Z,9.95
2023-03-25T10:36:51.872Z,9.02
2023-03-25T10:38:56.672Z,13.95
2023-03-25T10:41:22.851Z,15.10
2023-03-25T10:43:29.051Z,9.73
2023-03-25T10:45:34.188Z,10.43
2023-03-25T10:47:40.217Z,10.32
2023-03-25T10:49:41.918Z,13.43
2023-03-25T10:51:43.990Z,6.55
2023-03-25T10:53:48.124Z,12.02
2023-03-25T10:55:53.344Z,10.15
2023-03-25T10:57:55.741Z,9.50
2023-03-25T11:00:00.900Z,12.05
2023-03-25T11:02:17.984Z,8.55
2023-03-25T11:04:20.285Z,13.73
2023-03-25T11:06:22.573Z,7.10
2023-03-25T11:08:25.601Z,10.13
2023-03-25T11:10:34.328Z,13.10
2023-03-25T11:12:42.952Z,13.45
2023-03-25T11:15:05.272Z,6.40
2023-03-25T11:17:16.701Z,9.73
2023-03-25T11:19:24.244Z,10.55
2023-03-25T11:21:32.248Z,8.63
2023-03-25T11:23:47.347Z,11.00
2023-03-25T11:26:27.516Z,12.15
2023-03-25T11:28:31.558Z,6.25
2023-03-25T11:30:33.223Z,5.43
2023-03-25T11:32:38.787Z,6.55
2023-03-25T11:34:47.984Z,8.38
2023-03-25T11:37:15.878Z,11.82
2023-03-25T11:39:19.271Z,4.93
2023-03-25T11:41:23.670Z,10.23
2023-03-25T11:43:32.628Z,7.65
2023-03-25T11:45:45.507Z,6.10
2023-03-25T11:47:50.785Z,8.52
2023-03-25T11:49:53.623Z,5.45
2023-03-25T11:52:03.848Z,5.55
2023-03-25T11:54:11.309Z,7.15
2023-03-25T11:56:16.444Z,9.82
2023-03-25T11:58:22.757Z,6.38
2023-03-25T12:00:50.721Z,7.15
2023-03-25T12:03:03.119Z,7.95
2023-03-25T12:05:12.455Z,6.03
2023-03-25T12:07:15.511Z,7.30
2023-03-25T12:09:20.054Z,3.47
2023-03-25T12:11:28.110Z,3.25
2023-03-25T12:14:14.443Z,4.77
2023-03-25T12:16:23.755Z,6.63
2023-03-25T12:18:35.095Z,7.38
2023-03-25T12:20:36.729Z,7.60
2023-03-25T12:22:38.132Z,9.70
2023-03-25T12:24:42.415Z,5.05
2023-03-25T12:26:58.711Z,5.43
2023-03-25T12:29:27.051Z,6.05
2023-03-25T12:32:21.632Z,12.13
2023-03-25T12:35:12.363Z,3.70
2023-03-25T12:37:46.891Z,7.88
2023-03-25T12:43:21.412Z,11.68
2023-03-25T12:45:48.643Z,3.25
2023-03-25T12:48:25.595Z,5.38
2023-03-25T12:50:43.150Z,1.95
2023-03-25T12:53:15.094Z,5.90
2023-03-25T12:56:05.035Z,3.30
2023-03-25T12:58:36.177Z,4.50
2023-03-25T13:01:16.280Z,2.95
2023-03-25T13:03:54.314Z,4.88
2023-03-25T13:06:13.064Z,2.15
2023-03-25T13:08:38.840Z,4.78
2023-03-25T13:10:44.075Z,10.30
2023-03-25T13:12:51.095Z,8.93
2023-03-25T13:15:30.962Z,7.82
2023-03-25T13:17:45.970Z,8.98
2023-03-25T13:19:47.967Z,4.75
2023-03-25T13:21:55.663Z,4.45
2023-03-25T13:24:17.460Z,5.60
2023-03-25T13:26:27.068Z,8.75
2023-03-25T13:28:43.515Z,3.40
2023-03-25T13:30:49.335Z,5.82
2023-03-25T13:32:55.621Z,7.70
2023-03-25T13:35:03.405Z,3.38
2023-03-25T13:37:10.633Z,4.03
2023-03-25T13:39:14.361Z,8.38
2023-03-25T13:41:25.024Z,7.20
2023-03-25T13:43:32.126Z,8.07
2023-03-25T13:45:48.286Z,3.97
2023-03-25T13:48:09.364Z,5.22
2023-03-25T13:50:18.547Z,9.70
2023-03-25T13:52:26.324Z,8.00
2023-03-25T13:54:36.590Z,10.05
2023-03-25T13:57:08.229Z,7.78
2023-03-25T13:59:34.346Z,6.82
2023-03-25T14:01:41.460Z,9.38
2023-03-25T14:03:43.312Z,11.00
2023-03-25T14:06:07.996Z,3.78
2023-03-25T14:08:27.848Z,7.15
2023-03-25T14:10:51.294Z,6.60
2023-03-25T14:12:58.523Z,10.75
2023-03-25T14:15:12.614Z,7.13
2023-03-25T14:17:15.827Z,6.82
2023-03-25T14:19:39.617Z,14.70
2023-03-25T14:21:43.385Z,8.98
2023-03-25T14:23:48.439Z,9.48
2023-03-25T14:25:54.521Z,14.15
2023-03-25T14:27:56.043Z,9.60
2023-03-25T14:30:02.263Z,6.95
2023-03-25T14:32:09.619Z,8.82
2023-03-25T14:34:22.269Z,10.63
2023-03-25T14:36:29.910Z,14.23
2023-03-25T14:39:01.125Z,10.20
2023-03-25T14:41:05.456Z,13.10
2023-03-25T14:43:28.513Z,22.65
2023-03-25T14:45:32.719Z,17.92
2023-03-25T14:47:35.557Z,30.10
2023-03-25T14:49:56.253Z,24.70
2023-03-25T14:52:01.944Z,20.45
2023-03-25T14:54:26.192Z,27.15
2023-03-25T14:56:48.522Z,20.38
2023-03-25T14:58:54.559Z,21.67
2023-03-25T15:01:08.492Z,31.17
2023-03-25T15:03:16.517Z,23.88
2023-03-25T15:05:21.594Z,34.63
2023-03-25T15:07:44.255Z,27.23
2023-03-25T15:09:55.940Z,28.88
2023-03-25T15:12:05.074Z,28.20
2023-03-25T15:14:08.765Z,19.15
2023-03-25T15:16:17.598Z,36.60
2023-03-25T15:18:37.520Z,42.60
2023-03-25T15:20:42.493Z,41.38
2023-03-25T15:23:07.831Z,36.88
2023-03-25T15:25:19.406Z,32.50
2023-03-25T15:29:25.076Z,36.75
2023-03-25T15:31:34.102Z,30.27
2023-03-25T15:33:55.350Z,36.42
2023-03-25T15:36:15.859Z,40.75
2023-03-25T15:38:25.920Z,28.77
2023-03-25T15:40:55.591Z,26.80
2023-03-25T15:43:16.041Z,22.67
2023-03-25T15:45:33.638Z,20.15
2023-03-25T15:47:43.369Z,28.30
2023-03-25T15:50:10.452Z,23.90
2023-03-25T15:52:26.938Z,34.00
2023-03-25T15:54:37.240Z,23.58
2023-03-25T15:56:53.896Z,27.83
2023-03-25T15:59:27.034Z,26.15
2023-03-25T16:01:45.088Z,18.48
2023-03-25T16:04:13.234Z,30.20
2023-03-25T16:06:27.564Z,26.88
2023-03-25T16:08:44.147Z,27.45
2023-03-25T16:10:58.495Z,22.98
2023-03-25T16:13:08.353Z,23.75
2023-03-25T16:15:38.333Z,19.52
2023-03-25T16:17:56.604Z,14.20
2023-03-25T16:20:06.064Z,19.17
2023-03-25T16:22:26.154Z,25.13
2023-03-25T16:24:29.868Z,16.10
2023-03-25T16:26:42.380Z,16.98
2023-03-25T16:28:43.876Z,14.25
2023-03-25T16:30:49.783Z,12.45
2023-03-25T16:32:52.449Z,14.98
2023-03-25T16:34:54.104Z,12.95
2023-03-25T16:36:58.934Z,10.10
2023-03-25T16:39:00.981Z,9.55
2023-03-25T16:41:07.749Z,8.52
2023-03-25T16:43:17.596Z,7.28
2023-03-25T16:45:19.381Z,12.27
2023-03-25T16:47:22.438Z,9.63
2023-03-25T16:49:29.836Z,8.00
2023-03-25T16:51:37.026Z,11.85
2023-03-25T16:53:42.020Z,10.57
2023-03-25T16:56:08.945Z,7.82
2023-03-25T16:58:16.095Z,5.95
2023-03-25T17:00:22.293Z,12.65
2023-03-25T17:02:25.811Z,5.35
2023-03-25T17:04:48.367Z,11.45
2023-03-25T17:06:54.601Z,8.18
2023-03-25T17:08:57.397Z,9.93
2023-03-25T17:11:17.365Z,7.75
2023-03-25T17:13:23.042Z,9.07
2023-03-25T17:15:43.492Z,9.50
2023-03-25T17:18:06.960Z,7.20
2023-03-25T17:20:18.023Z,8.07
2023-03-25T17:22:33.250Z,14.43
2023-03-25T17:24:40.134Z,10.13
2023-03-25T17:26:55.420Z,6.85
2023-03-25T17:29:02.127Z,9.52
2023-03-25T17:31:19.179Z,9.20
2023-03-25T17:33:29.007Z,5.35
2023-03-25T17:35:31.568Z,8.20
2023-03-25T17:37:37.161Z,10.05
2023-03-25T17:39:47.442Z,14.48
2023-03-25T17:42:14.506Z,13.45
2023-03-25T17:44:17.182Z,6.78
2023-03-25T17:46:28.901Z,8.43
2023-03-25T17:48:33.548Z,9.27
2023-03-25T17:50:38.058Z,9.07
2023-03-25T17:52:42.371Z,11.10
2023-03-25T17:56:48.281Z,13.20
2023-03-25T17:58:49.748Z,7.38
2023-03-25T18:01:11.991Z,15.00
2023-03-25T18:03:22.869Z,11.88
2023-03-25T18:05:24.340Z,16.08
2023-03-25T18:07:25.983Z,15.20
2023-03-25T18:09:30.133Z,12.00
2023-03-25T18:11:34.537Z,9.10
2023-03-25T18:13:39.145Z,13.15
2023-03-25T18:15:40.740Z,23.42
2023-03-25T18:17:42.356Z,18.02
2023-03-25T18:19:46.492Z,20.15
2023-03-25T18:21:48.279Z,10.43
2023-03-25T18:23:55.702Z,13.98
2023-03-25T18:26:01.233Z,13.20
2023-03-25T18:28:21.849Z,37.60
2023-03-25T18:30:28.340Z,26.27
2023-03-25T18:32:33.312Z,17.90
2023-03-25T18:34:35.815Z,16.33
2023-03-25T18:36:52.559Z,23.38
2023-03-25T18:39:32.393Z,18.20
2023-03-25T18:41:56.351Z,13.05
2023-03-25T18:44:10.605Z,15.70
2023-03-25T18:46:24.886Z,21.65
2023-03-25T18:48:44.176Z,22.55
2023-03-25T18:51:03.795Z,19.77
2023-03-25T18:53:15.591Z,17.13
2023-03-25T18:55:34.016Z,30.92
2023-03-25T18:57:47.189Z,21.13
2023-03-25T18:59:55.950Z,24.55
2023-03-25T19:02:22.116Z,24.25
2023-03-25T19:04:34.946Z,22.10
2023-03-25T19:06:46.731Z,30.27
2023-03-25T19:08:52.232Z,19.67
2023-03-25T19:11:16.534Z,28.98
2023-03-25T19:13:26.122Z,25.25
2023-03-25T19:15:40.411Z,26.98
2023-03-25T19:17:44.693Z,26.13
2023-03-25T19:19:49.660Z,29.67
2023-03-25T19:21:54.332Z,26.27
2023-03-25T19:23:58.818Z,24.60
2023-03-25T19:26:01.147Z,22.23
2023-03-25T19:28:06.644Z,28.63
2023-03-25T19:30:09.101Z,35.10
2023-03-25T19:32:13.983Z,32.65
2023-03-25T19:34:16.668Z,35.33
2023-03-25T19:36:19.128Z,36.55
2023-03-25T19:38:24.465Z,32.70
2023-03-25T19:40:28.080Z,41.33
2023-03-25T19:42:29.790Z,28.38
2023-03-25T19:44:34.390Z,30.63
2023-03-25T19:48:40.389Z,38.50
2023-03-25T19:50:42.909Z,38.80
2023-03-25T19:52:48.482Z,38.08
2023-03-25T19:54:55.553Z,43.05
2023-03-25T19:57:00.108Z,48.58
2023-03-25T19:59:04.839Z,32.30
2023-03-25T20:01:11.715Z,35.58
2023-03-25T20:03:22.987Z,43.03
2023-03-25T20:05:34.790Z,33.67
2023-03-25T20:07:43.040Z,33.42
2023-03-25T20:09:49.644Z,47.83
2023-03-25T20:11:56.452Z,37.25
2023-03-25T20:14:01.492Z,48.47
2023-03-25T20:16:05.955Z,52.35
2023-03-25T20:18:09.666Z,39.80
2023-03-25T20:20:15.141Z,50.10
2023-03-25T20:22:24.843Z,44.22
2023-03-25T20:24:31.708Z,41.22
2023-03-25T20:26:38.854Z,44.50
2023-03-25T20:28:43.107Z,51.63
2023-03-25T20:30:49.613Z,41.92
2023-03-25T20:32:57.416Z,41.72
2023-03-25T20:35:01.718Z,42.55
2023-03-25T20:37:10.026Z,49.80
2023-03-25T20:39:11.911Z,43.72
2023-03-25T20:41:16.680Z,51.95
2023-03-25T20:43:18.502Z,57.28
2023-03-25T20:45:20.438Z,54.88
2023-03-25T20:47:22.369Z,59.53
2023-03-25T20:49:27.202Z,67.93
2023-03-25T20:51:29.073Z,56.50
2023-03-25T20:53:36.857Z,47.13
2023-03-25T20:55:38.402Z,53.13
2023-03-25T20:57:43.449Z,61.17
2023-03-25T20:59:47.602Z,59.97
2023-03-25T21:03:55.944Z,69.80
2023-03-25T21:05:58.508Z,53.20
2023-03-25T21:08:03.033Z,48.88
2023-03-25T21:10:08.297Z,74.07
2023-03-25T21:12:10.505Z,55.97
2023-03-25T21:14:15.234Z,69.95
2023-03-25T21:16:19.799Z,58.42
2023-03-25T21:18:24.794Z,68.32
2023-03-25T21:20:30.633Z,64.07
2023-03-25T21:22:34.765Z,67.73
2023-03-25T21:24:39.213Z,63.35
2023-03-25T21:26:40.780Z,62.33
2023-03-25T21:28:45.174Z,54.65
2023-03-25T21:30:58.583Z,52.03
2023-03-25T21:33:02.838Z,52.30
2023-03-25T21:35:04.551Z,57.95
2023-03-25T21:37:06.341Z,47.80
2023-03-25T21:39:11.073Z,65.38
2023-03-25T21:41:15.467Z,49.17
2023-03-25T21:43:24.054Z,61.45
2023-03-25T21:45:47.196Z,47.47
2023-03-25T21:47:53.510Z,54.25
2023-03-25T21:49:58.222Z,49.88
2023-03-25T21:52:00.290Z,37.83
2023-03-25T21:54:04.602Z,68.75
2023-03-25T21:58:15.019Z,60.15
2023-03-25T22:00:17.718Z,58.05
2023-03-25T22:02:37.673Z,59.05
2023-03-25T22:04:42.270Z,61.65
2023-03-25T22:06:46.873Z,53.85
2023-03-25T22:08:54.480Z,82.85
2023-03-25T22:11:02.276Z,55.55
2023-03-25T22:13:06.977Z,53.70
2023-03-25T22:15:09.358Z,53.55
2023-03-25T22:17:16.555Z,49.22
2023-03-25T22:21:34.172Z,55.45
2023-03-25T22:23:40.362Z,56.83
2023-03-25T22:25:47.969Z,54.10
2023-03-25T22:27:52.740Z,49.47
2023-03-25T22:29:57.585Z,46.40
2023-03-25T22:32:06.974Z,64.43
2023-03-25T22:34:15.024Z,49.60
2023-03-25T22:36:16.937Z,54.17
2023-03-25T22:38:18.896Z,50.65
2023-03-25T22:40:23.469Z,44.63
2023-03-25T22:42:30.568Z,50.92
2023-03-25T22:44:32.055Z,51.72
2023-03-25T22:46:33.968Z,42.88
2023-03-25T22:48:38.965Z,41.45
2023-03-25T22:50:40.391Z,66.93
2023-03-25T22:52:42.184Z,48.53
2023-03-25T22:55:02.444Z,45.17
2023-03-25T22:57:04.039Z,46.72
2023-03-25T22:59:08.326Z,49.97
2023-03-25T23:03:32.959Z,45.08
2023-03-25T23:05:38.059Z,40.55
2023-03-25T23:07:42.606Z,45.35
2023-03-25T23:09:47.609Z,50.80
2023-03-25T23:11:49.071Z,46.05
2023-03-25T23:13:55.319Z,49.45
2023-03-25T23:15:58.002Z,61.67
2023-03-25T23:17:59.800Z,42.00
2023-03-25T23:20:08.435Z,34.92
2023-03-25T23:22:13.347Z,49.88
2023-03-25T23:24:14.872Z,47.95
2023-03-25T23:26:19.683Z,40.75
2023-03-25T23:28:39.560Z,34.00
2023-03-25T23:30:45.800Z,40.92
2023-03-25T23:33:06.044Z,50.92
2023-03-25T23:35:07.718Z,37.15
2023-03-25T23:37:09.352Z,30.85
2023-03-25T23:39:15.471Z,33.95
2023-03-25T23:41:23.730Z,37.65
2023-03-25T23:43:28.132Z,34.00
2023-03-25T23:45:33.946Z,39.75
2023-03-25T23:47:35.804Z,34.33
2023-03-25T23:49:38.479Z,27.67
2023-03-25T23:51:41.456Z,38.13
2023-03-25T23:54:02.466Z,34.55
2023-03-25T23:56:07.657Z,37.47
2023-03-25T23:58:09.165Z,43.53
